createdAt,value
2023-05-08T00:00:21.504Z,9.10
2023-05-08T00:02:51.052Z,9.10
2023-05-08T00:05:20.471Z,9.10
2023-05-08T00:07:53.090Z,9.20
2023-05-08T00:10:22.458Z,9.10
2023-05-08T00:12:51.851Z,9.20
2023-05-08T00:15:21.242Z,9.20
2023-05-08T00:17:51.690Z,9.10
2023-05-08T00:20:21.560Z,9.20
2023-05-08T00:22:50.928Z,9.20
2023-05-08T00:25:20.277Z,9.20
2023-05-08T00:27:49.648Z,9.20
2023-05-08T00:30:19.123Z,9.30
2023-05-08T00:32:48.722Z,9.30
2023-05-08T00:35:18.132Z,9.40
2023-05-08T00:37:48.596Z,9.50
2023-05-08T00:40:18.139Z,9.50
2023-05-08T00:42:47.513Z,9.40
2023-05-08T00:45:16.865Z,9.50
2023-05-08T00:47:46.726Z,9.50
2023-05-08T00:50:17.368Z,9.60
2023-05-08T00:52:47.178Z,9.70
2023-05-08T00:55:17.267Z,9.80
2023-05-08T00:57:48.747Z,9.80
2023-05-08T01:00:19.790Z,9.80
2023-05-08T01:02:50.297Z,9.80
2023-05-08T01:05:19.769Z,9.90
2023-05-08T01:07:50.390Z,9.80
2023-05-08T01:10:19.746Z,9.90
2023-05-08T01:13:12.777Z,10.00
2023-05-08T01:15:49.031Z,10.10
2023-05-08T01:18:24.763Z,10.20
2023-05-08T01:21:06.420Z,10.20
2023-05-08T01:23:50.971Z,10.30
2023-05-08T01:26:39.191Z,10.30
2023-05-08T01:29:27.155Z,10.30
2023-05-08T01:32:02.750Z,10.40
2023-05-08T01:34:36.052Z,10.40
2023-05-08T01:37:07.448Z,10.50
2023-05-08T01:39:37.570Z,10.60
2023-05-08T01:42:20.884Z,10.70
2023-05-08T01:44:53.945Z,10.80
2023-05-08T01:47:24.513Z,10.80
2023-05-08T01:50:00.951Z,10.90
2023-05-08T01:52:34.353Z,10.80
2023-05-08T01:55:10.841Z,11.00
2023-05-08T01:57:45.789Z,11.10
2023-05-08T02:00:16.899Z,11.10
2023-05-08T02:02:47.569Z,11.00
2023-05-08T02:05:17.281Z,11.20
2023-05-08T02:07:48.356Z,11.20
2023-05-08T02:10:18.773Z,11.30
2023-05-08T02:12:49.151Z,11.40
2023-05-08T02:15:18.799Z,11.40
2023-05-08T02:17:50.498Z,11.40
2023-05-08T02:20:20.893Z,11.40
2023-05-08T02:22:52.298Z,11.40
2023-05-08T02:25:22.087Z,11.50
2023-05-08T02:27:52.769Z,11.50
2023-05-08T02:30:24.211Z,11.50
2023-05-08T02:32:54.890Z,11.60
2023-05-08T02:35:25.192Z,11.50
2023-05-08T02:37:55.892Z,11.50
2023-05-08T04:14:00.627Z,12.10
2023-05-08T04:16:31.506Z,12.30
2023-05-08T04:19:04.660Z,12.30
2023-05-08T04:21:35.760Z,12.20
2023-05-08T04:24:06.782Z,12.20
2023-05-08T04:26:36.227Z,12.30
2023-05-08T04:29:06.735Z,12.30
2023-05-08T04:31:37.292Z,12.40
2023-05-08T04:34:07.142Z,12.50
2023-05-08T04:36:36.627Z,12.50
2023-05-08T04:39:07.173Z,12.60
2023-05-08T04:41:38.178Z,12.60
2023-05-08T04:44:08.108Z,12.50
2023-05-08T04:46:37.913Z,12.50
2023-05-08T04:49:07.399Z,12.50
2023-05-08T04:51:37.352Z,12.50
2023-05-08T04:54:06.826Z,12.40
2023-05-08T04:56:36.222Z,12.40
2023-05-08T04:59:05.610Z,12.40
2023-05-08T05:01:35.071Z,12.40
2023-05-08T05:04:04.533Z,12.30
2023-05-08T05:06:35.610Z,12.30
2023-05-08T05:09:06.297Z,12.30
2023-05-08T05:11:36.788Z,12.30
2023-05-08T05:14:06.668Z,12.40
2023-05-08T05:16:37.155Z,12.40
2023-05-08T05:19:07.046Z,12.40
2023-05-08T05:21:36.396Z,12.40
2023-05-08T05:24:06.138Z,12.30
2023-05-08T05:26:36.846Z,12.30
2023-05-08T05:29:06.360Z,12.30
2023-05-08T05:31:35.862Z,12.30
2023-05-08T05:34:06.612Z,12.30
2023-05-08T05:36:36.159Z,12.20
2023-05-08T05:39:05.559Z,12.10
2023-05-08T05:41:35.880Z,12.10
2023-05-08T05:44:05.895Z,12.10
2023-05-08T05:46:35.353Z,12.00
2023-05-08T05:49:04.853Z,12.00
2023-05-08T05:51:34.514Z,11.90
2023-05-08T05:54:03.877Z,11.90
2023-05-08T05:56:33.239Z,11.90
2023-05-08T05:59:03.026Z,11.90
2023-05-08T06:01:32.382Z,11.80
2023-05-08T06:04:03.011Z,11.80
2023-05-08T06:06:33.969Z,11.70
2023-05-08T06:09:03.380Z,11.70
2023-05-08T06:11:32.974Z,11.60
2023-05-08T06:14:02.467Z,11.50
2023-05-08T06:16:32.218Z,11.50
2023-05-08T06:19:01.677Z,11.50
2023-05-08T06:21:32.194Z,11.40
2023-05-08T06:24:01.520Z,11.30
2023-05-08T06:26:30.905Z,11.30
2023-05-08T06:29:00.356Z,11.20
2023-05-08T06:31:29.816Z,11.20
2023-05-08T06:34:00.216Z,11.10
2023-05-08T06:36:29.609Z,11.10
2023-05-08T06:38:59.200Z,11.00
2023-05-08T06:41:29.661Z,11.00
2023-05-08T06:44:00.215Z,10.90
2023-05-08T06:46:31.410Z,10.80
2023-05-08T06:49:00.933Z,10.80
2023-05-08T06:51:30.677Z,10.70
2023-05-08T06:54:00.040Z,10.70
2023-05-08T06:56:29.587Z,10.60
2023-05-08T06:59:07.867Z,10.60
2023-05-08T07:01:39.129Z,10.50
2023-05-08T07:04:09.572Z,10.50
2023-05-08T07:06:39.114Z,10.40
2023-05-08T07:09:08.524Z,10.30
2023-05-08T07:11:37.903Z,10.30
2023-05-08T07:14:07.333Z,10.30
2023-05-08T07:16:36.772Z,10.20
2023-05-08T07:19:06.413Z,10.10
2023-05-08T07:21:37.369Z,10.10
2023-05-08T07:24:06.954Z,10.10
2023-05-08T07:26:36.802Z,10.00
2023-05-08T07:29:06.555Z,9.90
2023-05-08T07:31:35.919Z,9.80
2023-05-08T07:34:05.296Z,9.80
2023-05-08T07:36:34.633Z,9.80
2023-05-08T07:39:03.984Z,9.70
2023-05-08T07:41:34.016Z,9.70
2023-05-08T07:44:03.385Z,9.70
2023-05-08T07:46:32.834Z,9.60
2023-05-08T07:49:02.684Z,9.60
2023-05-08T07:51:32.446Z,9.60
2023-05-08T07:54:01.917Z,9.50
2023-05-08T07:56:35.599Z,9.40
2023-05-08T07:59:05.649Z,9.40
2023-05-08T08:01:35.978Z,9.30
2023-05-08T17:40:56.047Z,3.20
2023-05-08T17:43:26.344Z,3.20
2023-05-08T17:45:56.307Z,3.20
2023-05-08T17:48:25.751Z,3.20
2023-05-08T17:50:55.482Z,3.10
2023-05-08T17:53:24.939Z,3.10
2023-05-08T17:55:54.488Z,3.00
2023-05-08T17:58:23.851Z,3.00
2023-05-08T18:00:53.708Z,3.00
2023-05-08T18:03:23.376Z,3.10
2023-05-08T18:05:53.250Z,3.10
2023-05-08T18:08:22.780Z,3.00
2023-05-08T18:10:53.178Z,2.90
2023-05-08T18:13:23.151Z,2.90
2023-05-08T18:15:53.394Z,3.00
2023-05-08T18:18:23.198Z,3.00
2023-05-08T18:20:52.554Z,3.00
2023-05-08T18:23:23.786Z,3.00
2023-05-08T18:25:53.098Z,2.90
2023-05-08T18:28:22.479Z,2.80
2023-05-08T18:30:53.067Z,2.80
2023-05-08T18:33:22.449Z,2.80
2023-05-08T18:35:52.727Z,2.80
2023-05-08T18:38:22.037Z,2.80
2023-05-08T18:40:51.907Z,2.80
2023-05-08T18:43:21.443Z,2.70
2023-05-08T18:45:50.805Z,2.70
2023-05-08T18:48:20.205Z,2.60
2023-05-08T18:50:49.609Z,2.60
2023-05-08T18:53:19.494Z,2.60
2023-05-08T18:55:49.994Z,2.70
2023-05-08T18:58:19.924Z,2.60
2023-05-08T19:00:49.336Z,2.60
2023-05-08T19:03:19.936Z,2.60
2023-05-08T19:05:49.396Z,2.60
2023-05-08T19:08:19.581Z,2.60
2023-05-08T19:10:48.966Z,2.50
2023-05-08T19:13:18.800Z,2.50
2023-05-08T19:15:48.408Z,2.40
2023-05-08T19:18:17.822Z,2.50
2023-05-08T19:20:47.170Z,2.40
2023-05-08T19:23:18.931Z,2.40
2023-05-08T19:25:48.420Z,2.40
2023-05-08T19:28:17.888Z,2.40
2023-05-08T19:30:47.262Z,2.50
2023-05-08T19:33:17.670Z,2.50
2023-05-08T19:35:47.035Z,2.50
2023-05-08T19:38:16.715Z,2.50
2023-05-08T19:40:56.685Z,2.50
2023-05-08T19:43:30.666Z,2.50
2023-05-08T19:46:00.306Z,2.40
2023-05-08T19:48:29.753Z,2.30
2023-05-08T19:50:59.105Z,2.40
2023-05-08T19:53:28.469Z,2.40
2023-05-08T19:55:57.853Z,2.40
2023-05-08T19:58:28.447Z,2.30
2023-05-08T20:00:59.095Z,2.30
2023-05-08T20:03:28.540Z,2.30
2023-05-08T20:05:58.254Z,2.30
2023-05-08T20:08:27.627Z,2.40
2023-05-08T20:10:57.015Z,2.30
2023-05-08T20:13:26.568Z,2.30
2023-05-08T20:15:56.110Z,2.30
2023-05-08T20:18:25.476Z,2.30
2023-05-08T20:20:54.842Z,2.30
2023-05-08T20:23:24.813Z,2.30
2023-05-08T20:25:56.536Z,2.30
2023-05-08T20:28:27.827Z,2.30
2023-05-08T20:30:57.343Z,2.30
2023-05-08T20:33:26.726Z,2.30
2023-05-08T20:35:56.880Z,2.20
2023-05-08T20:38:26.274Z,2.20
2023-05-08T20:40:59.333Z,2.30
2023-05-08T20:43:30.415Z,2.30
2023-05-08T20:46:00.310Z,2.30
2023-05-08T20:48:29.926Z,2.30
2023-05-08T20:50:59.318Z,2.20
2023-05-08T20:53:28.656Z,2.20
2023-05-08T20:56:04.709Z,2.30
2023-05-08T20:58:34.209Z,2.30
2023-05-08T21:01:03.613Z,2.40
2023-05-08T21:03:33.646Z,2.30
2023-05-08T21:06:03.084Z,2.30
2023-05-08T21:08:33.003Z,2.30
2023-05-08T21:11:03.364Z,2.30
2023-05-08T21:13:33.814Z,2.40
2023-05-08T21:16:03.641Z,2.40
2023-05-08T21:18:33.024Z,2.40
2023-05-08T21:21:03.741Z,2.50
2023-05-08T21:23:34.356Z,2.50
2023-05-08T21:26:04.829Z,2.40
2023-05-08T21:28:34.183Z,2.50
2023-05-08T21:31:03.683Z,2.60
2023-05-08T21:33:35.223Z,2.60
2023-05-08T21:36:05.017Z,2.50
2023-05-08T21:38:34.437Z,2.50
2023-05-08T21:41:10.562Z,2.50
2023-05-08T21:43:41.486Z,2.50
2023-05-08T21:46:11.142Z,2.60
2023-05-08T21:48:41.572Z,2.60
2023-05-08T21:51:10.983Z,2.60
2023-05-08T23:56:36.810Z,7.90
2023-05-08T23:59:07.208Z,8.20
